<?xml version='1.0' encoding='UTF-8'?><gpx version="1.1" creator="JPX - https://github.com/jenetics/jpx" xmlns="http://www.topografix.com/GPX/1/1"><trk><trkseg><trkpt lat="-38.2136028245097" lon="146.15903472461275"><ele>81.85714285714285</ele><time>2026-05-05T21:11:13Z</time></trkpt><trkpt lat="-38.21359819830851" lon="146.15895266856373"><ele>81.71428571428571</ele><time>2026-05-05T21:11:21Z</time></trkpt><trkpt lat="-38.21356694929253" lon="146.15887177292763"><ele>81.57142857142857</ele><time>2026-05-05T21:11:26Z</time></trkpt><trkpt lat="-38.213541997587384" lon="146.1587895837565"><ele>81.42857142857142</ele><time>2026-05-05T21:11:32Z</time></trkpt><trkpt lat="-38.21352511941104" lon="146.15870999983727"><ele>81.28571428571428</ele><time>2026-05-05T21:11:37.999Z</time></trkpt><trkpt lat="-38.21350744658096" lon="146.15863043204317"><ele>81.14285714285714</ele><time>2026-05-05T21:11:43.999Z</time></trkpt><trkpt lat="-38.21348785371262" lon="146.1585492090826"><ele>81.0</ele><time>2026-05-05T21:11:49.999Z</time></trkpt><trkpt lat="-38.213465923154764" lon="146.15846991834076"><ele>81.0</ele><time>2026-05-05T21:11:55.999Z</time></trkpt><trkpt lat="-38.2134232599261" lon="146.158397314544"><ele>81.0</ele><time>2026-05-05T21:12:01.999Z</time></trkpt><trkpt lat="-38.213378008817635" lon="146.1583290700166"><ele>81.0</ele><time>2026-05-05T21:12:07.999Z</time></trkpt><trkpt lat="-38.21334483736127" lon="146.15825607435576"><ele>81.0</ele><time>2026-05-05T21:12:12.999Z</time></trkpt><trkpt lat="-38.21329470083123" lon="146.15818797793705"><ele>81.0</ele><time>2026-05-05T21:12:19.999Z</time></trkpt><trkpt lat="-38.2132512860893" lon="146.15812480979653"><ele>81.0</ele><time>2026-05-05T21:12:25.999Z</time></trkpt><trkpt lat="-38.21320546247608" lon="146.15805843382236"><ele>81.0</ele><time>2026-05-05T21:12:31.999Z</time></trkpt><trkpt lat="-38.21315508220456" lon="146.15799039436848"><ele>80.85714285714286</ele><time>2026-05-05T21:12:38.999Z</time></trkpt><trkpt lat="-38.21309554204764" lon="146.15793790875335"><ele>80.71428571428571</ele><time>2026-05-05T21:12:44.999Z</time></trkpt><trkpt lat="-38.21302935741593" lon="146.15789414292357"><ele>80.57142857142857</ele><time>2026-05-05T21:12:50.998Z</time></trkpt><trkpt lat="-38.21296863823793" lon="146.15785054162737"><ele>80.42857142857143</ele><time>2026-05-05T21:12:57Z</time></trkpt><trkpt lat="-38.212904499247934" lon="146.1578208587249"><ele>80.28571428571429</ele><time>2026-05-05T21:13:02Z</time></trkpt><trkpt lat="-38.21284349664961" lon="146.15778333187208"><ele>80.14285714285714</ele><time>2026-05-05T21:13:09Z</time></trkpt><trkpt lat="-38.21278577743786" lon="146.1577436280733"><ele>80.0</ele><time>2026-05-05T21:13:15Z</time></trkpt><trkpt lat="-38.21271993117295" lon="146.15771902435463"><ele>80.0</ele><time>2026-05-05T21:13:20Z</time></trkpt><trkpt lat="-38.21265385250268" lon="146.1576821278082"><ele>80.0</ele><time>2026-05-05T21:13:26Z</time></trkpt><trkpt lat="-38.21259385164684" lon="146.15764258150708"><ele>80.0</ele><time>2026-05-05T21:13:32Z</time></trkpt><trkpt lat="-38.21253763994848" lon="146.1576025609874"><ele>80.0</ele><time>2026-05-05T21:13:37Z</time></trkpt><trkpt lat="-38.21247406867571" lon="146.1575805033838"><ele>80.0</ele><time>2026-05-05T21:13:42.999Z</time></trkpt><trkpt lat="-38.212407697835836" lon="146.15755633550722"><ele>80.0</ele><time>2026-05-05T21:13:48.999Z</time></trkpt><trkpt lat="-38.21233805053122" lon="146.1575627938578"><ele>80.0</ele><time>2026-05-05T21:13:55.999Z</time></trkpt><trkpt lat="-38.21227163454885" lon="146.15756802296053"><ele>79.71428571428571</ele><time>2026-05-05T21:14:01.999Z</time></trkpt><trkpt lat="-38.21220424354246" lon="146.1575715066187"><ele>79.42857142857143</ele><time>2026-05-05T21:14:07.999Z</time></trkpt><trkpt lat="-38.21213565163505" lon="146.15757606934338"><ele>79.14285714285714</ele><time>2026-05-05T21:14:13.999Z</time></trkpt><trkpt lat="-38.212066389342056" lon="146.1575896315393"><ele>78.85714285714286</ele><time>2026-05-05T21:14:19.999Z</time></trkpt><trkpt lat="-38.21199927360375" lon="146.1576052483098"><ele>78.57142857142857</ele><time>2026-05-05T21:14:25.999Z</time></trkpt><trkpt lat="-38.21192824230529" lon="146.15762249264958"><ele>78.28571428571429</ele><time>2026-05-05T21:14:31.999Z</time></trkpt><trkpt lat="-38.21185988136811" lon="146.15765031702372"><ele>78.0</ele><time>2026-05-05T21:14:37.999Z</time></trkpt><trkpt lat="-38.21178914150499" lon="146.15763462744806"><ele>78.0</ele><time>2026-05-05T21:14:45.999Z</time></trkpt><trkpt lat="-38.211756901209334" lon="146.15755931614817"><ele>78.0</ele><time>2026-05-05T21:14:49.999Z</time></trkpt><trkpt lat="-38.211750418263314" lon="146.15746470703078"><ele>78.0</ele><time>2026-05-05T21:14:57.998Z</time></trkpt><trkpt lat="-38.21173273517246" lon="146.15737294768198"><ele>78.0</ele><time>2026-05-05T21:15:05Z</time></trkpt><trkpt lat="-38.211720943137024" lon="146.15728147480203"><ele>78.0</ele><time>2026-05-05T21:15:11Z</time></trkpt><trkpt lat="-38.211724852910805" lon="146.1571930540261"><ele>78.0</ele><time>2026-05-05T21:15:18Z</time></trkpt><trkpt lat="-38.21176679983635" lon="146.15712164022264"><ele>78.0</ele><time>2026-05-05T21:15:24Z</time></trkpt><trkpt lat="-38.2118234676413" lon="146.1570828945485"><ele>77.85714285714286</ele><time>2026-05-05T21:15:30Z</time></trkpt><trkpt lat="-38.21189026590067" lon="146.15706274994642"><ele>77.71428571428571</ele><time>2026-05-05T21:15:35Z</time></trkpt><trkpt lat="-38.21196006306593" lon="146.1570481029403"><ele>77.57142857142857</ele><time>2026-05-05T21:15:41Z</time></trkpt><trkpt lat="-38.212032253245276" lon="146.15704007216672"><ele>77.42857142857143</ele><time>2026-05-05T21:15:49.999Z</time></trkpt><trkpt lat="-38.21210194645592" lon="146.15701910821525"><ele>77.28571428571428</ele><time>2026-05-05T21:15:55.999Z</time></trkpt><trkpt lat="-38.21217124116872" lon="146.15700816212214"><ele>77.14285714285714</ele><time>2026-05-05T21:16:00.999Z</time></trkpt><trkpt lat="-38.21224712618734" lon="146.15700189666057"><ele>77.0</ele><time>2026-05-05T21:16:06.999Z</time></trkpt><trkpt lat="-38.212311611517194" lon="146.1569835040229"><ele>77.42857142857143</ele><time>2026-05-05T21:16:11.999Z</time></trkpt><trkpt lat="-38.212384408587475" lon="146.1569704603269"><ele>77.85714285714286</ele><time>2026-05-05T21:16:17.999Z</time></trkpt><trkpt lat="-38.212447195312684" lon="146.1569548669918"><ele>78.28571428571428</ele><time>2026-05-05T21:16:22.999Z</time></trkpt><trkpt lat="-38.21250798845897" lon="146.1569934770193"><ele>78.71428571428572</ele><time>2026-05-05T21:16:30.999Z</time></trkpt><trkpt lat="-38.21253214577703" lon="146.1570690378891"><ele>79.14285714285714</ele><time>2026-05-05T21:16:35.999Z</time></trkpt><trkpt lat="-38.212521111534464" lon="146.15715874214172"><ele>79.57142857142857</ele><time>2026-05-05T21:16:52.999Z</time></trkpt><trkpt lat="-38.212544426616304" lon="146.15723401112493"><ele>80.0</ele><time>2026-05-05T21:16:58.999Z</time></trkpt><trkpt lat="-38.21259040612725" lon="146.15729904039762"><ele>80.0</ele><time>2026-05-05T21:17:05.999Z</time></trkpt><trkpt lat="-38.21266828082942" lon="146.15719143304506"><ele>80.0</ele><time>2026-05-05T21:17:43Z</time></trkpt><trkpt lat="-38.21263130062121" lon="146.1573071953922"><ele>80.0</ele><time>2026-05-05T21:18:05.999Z</time></trkpt><trkpt lat="-38.21260472235792" lon="146.15721165438293"><ele>80.0</ele><time>2026-05-05T21:18:48.027Z</time></trkpt><trkpt lat="-38.21253087743593" lon="146.15703586353595"><ele>80.0</ele><time>2026-05-05T21:19:00.026Z</time></trkpt><trkpt lat="-38.212566038294135" lon="146.15714690623565"><ele>80.0</ele><time>2026-05-05T21:20:30.124Z</time></trkpt></trkseg></trk></gpx>